Time;durP1;ratioP1;P1;durP2;ratioP2;P2;SDS_P1;SDS_P2;PMS_P1;PMS_P2;Temp;Humidity;BMP_temperature;BMP_pressure;BME280_temperature;BME280_humidity;BME280_pressure;Samples;Min_cycle;Max_cycle;Signal;HPM_P1;HPM_P2
2023/10/13 00:01:06;;;;;;;19.60;9.70;;;21.80;1.00;;;;;;5046267;28;20442;-75
2023/10/13 00:03:32;;;;;;;17.70;9.50;;;18.50;1.00;;;;;;5030677;28;20578;-75
2023/10/13 00:06:03;;;;;;;16.50;9.40;;;18.50;1.00;;;;;;5030849;28;20543;-75
2023/10/13 00:08:31;;;;;;;16.20;9.87;;;18.60;1.00;;;;;;5030921;28;20178;-74
2023/10/13 00:10:59;;;;;;;15.67;9.30;;;18.60;1.00;;;;;;5030830;28;20905;-76
2023/10/13 00:13:26;;;;;;;15.33;9.40;;;18.60;1.00;;;;;;5030742;28;20787;-75
2023/10/13 00:15:58;;;;;;;16.13;9.27;;;18.60;1.00;;;;;;5030827;28;20408;-74
2023/10/13 00:18:41;;;;;;;15.90;9.30;;;18.60;1.00;;;;;;5030505;28;20473;-74
2023/10/13 00:21:12;;;;;;;14.50;10.13;;;18.60;1.00;;;;;;5030565;28;20417;-74
2023/10/13 00:23:39;;;;;;;19.50;9.53;;;18.50;1.00;;;;;;5030647;28;20437;-75
2023/10/13 00:26:09;;;;;;;15.53;10.10;;;18.50;1.00;;;;;;5030453;28;20468;-75
2023/10/13 00:28:47;;;;;;;21.47;10.20;;;18.70;1.00;;;;;;5030303;28;20472;-73
2023/10/13 00:31:13;;;;;;;19.20;10.70;;;18.50;1.00;;;;;;5023451;28;20417;-75
2023/10/13 00:33:46;;;;;;;15.27;10.33;;;18.50;1.00;;;;;;5030099;28;20463;-75
2023/10/13 00:36:19;;;;;;;23.40;10.10;;;18.60;1.00;;;;;;5030091;28;20937;-76
2023/10/13 00:38:48;;;;;;;14.70;9.90;;;18.60;1.00;;;;;;5022285;28;20409;-75
2023/10/13 00:41:16;;;;;;;18.23;10.10;;;18.60;1.00;;;;;;5030328;28;20416;-74
2023/10/13 00:46:33;;;;;;;17.17;11.40;;;18.60;1.00;;;;;;5029651;28;20518;-74
2023/10/13 00:48:59;;;;;;;18.13;10.33;;;18.50;1.00;;;;;;5030255;28;20479;-74
2023/10/13 00:51:47;;;;;;;15.73;10.53;;;18.50;1.00;;;;;;5030006;28;20447;-74
2023/10/13 00:54:12;;;;;;;20.53;10.97;;;18.50;1.00;;;;;;5030094;28;20519;-74
2023/10/13 00:56:48;;;;;;;22.33;11.23;;;18.40;1.00;;;;;;5029504;28;21038;-74
2023/10/13 00:59:16;;;;;;;16.43;10.40;;;18.40;1.00;;;;;;5029962;28;20257;-74
2023/10/13 01:01:43;;;;;;;23.13;10.13;;;18.40;1.00;;;;;;5029575;28;20432;-75
2023/10/13 01:04:12;;;;;;;21.43;10.70;;;18.30;1.00;;;;;;5029998;28;20424;-74
2023/10/13 01:06:38;;;;;;;22.43;10.63;;;18.30;1.00;;;;;;5029741;28;20504;-74
2023/10/13 01:09:19;;;;;;;15.60;9.60;;;18.20;1.00;;;;;;5029864;28;20971;-74
2023/10/13 01:11:53;;;;;;;22.30;10.17;;;18.10;1.00;;;;;;5029892;28;20405;-75
2023/10/13 01:14:20;;;;;;;14.03;9.73;;;18.10;1.00;;;;;;5029825;28;20524;-74
2023/10/13 01:16:47;;;;;;;16.20;11.13;;;18.10;1.00;;;;;;5029509;28;20735;-74
2023/10/13 01:19:19;;;;;;;20.40;11.10;;;18.10;1.00;;;;;;5029615;28;20405;-74
2023/10/13 01:21:45;;;;;;;19.73;10.53;;;18.10;1.00;;;;;;5029339;28;20404;-74
2023/10/13 01:24:12;;;;;;;17.70;10.30;;;18.10;1.00;;;;;;5029540;28;20433;-75
2023/10/13 01:26:38;;;;;;;21.60;10.40;;;18.10;1.00;;;;;;5029529;28;20177;-77
2023/10/13 01:29:14;;;;;;;18.70;10.53;;;18.10;1.00;;;;;;5029574;28;20583;-74
2023/10/13 01:31:46;;;;;;;16.50;10.00;;;18.00;1.00;;;;;;5028932;28;20543;-74
2023/10/13 01:34:19;;;;;;;21.00;10.10;;;17.90;1.00;;;;;;5028105;28;20457;-75
2023/10/13 01:36:45;;;;;;;17.10;10.27;;;17.90;1.00;;;;;;5028707;28;20523;-75
2023/10/13 01:39:11;;;;;;;19.33;9.67;;;17.80;1.00;;;;;;5029185;28;20833;-74
2023/10/13 01:41:39;;;;;;;16.53;9.33;;;17.70;1.00;;;;;;5029277;28;20217;-74
2023/10/13 01:44:04;;;;;;;14.70;9.37;;;17.80;1.00;;;;;;5029449;28;20208;-74
2023/10/13 01:46:30;;;;;;;17.33;9.80;;;17.90;1.00;;;;;;5029091;28;20464;-74
2023/10/13 01:48:57;;;;;;;13.60;9.33;;;17.90;1.00;;;;;;5029223;28;20272;-74
2023/10/13 01:51:23;;;;;;;14.50;9.27;;;17.90;1.00;;;;;;5029646;28;20180;-74
2023/10/13 01:53:56;;;;;;;13.77;9.30;;;18.00;1.00;;;;;;5029423;28;20436;-74
2023/10/13 01:56:23;;;;;;;12.80;9.80;;;18.00;1.00;;;;;;5029335;28;20417;-74
2023/10/13 01:58:48;;;;;;;18.47;10.10;;;18.00;1.00;;;;;;5028970;28;20416;-76
2023/10/13 02:01:26;;;;;;;15.13;8.97;;;17.90;1.00;;;;;;5029600;28;20481;-76
2023/10/13 02:04:01;;;;;;;16.40;9.77;;;17.90;1.00;;;;;;5029117;28;20406;-74
2023/10/13 02:06:32;;;;;;;15.20;9.27;;;17.80;1.00;;;;;;5029170;28;20551;-74
2023/10/13 02:09:12;;;;;;;12.80;10.10;;;17.70;1.00;;;;;;5029245;28;20417;-74
2023/10/13 02:11:43;;;;;;;19.27;10.10;;;17.60;1.00;;;;;;5027531;28;20416;-74
2023/10/13 02:14:11;;;;;;;21.73;10.30;;;17.50;1.00;;;;;;5029048;28;20831;-74
2023/10/13 02:16:36;;;;;;;17.23;9.50;;;17.50;1.00;;;;;;5027601;28;20459;-74
2023/10/13 02:19:05;;;;;;;18.03;10.10;;;17.40;1.00;;;;;;5029265;28;20448;-74
2023/10/13 02:21:39;;;;;;;13.30;9.93;;;17.40;1.00;;;;;;5028903;28;20304;-72
2023/10/13 02:24:13;;;;;;;13.73;9.50;;;17.30;1.00;;;;;;5029139;28;20432;-74
2023/10/13 02:26:42;;;;;;;22.07;9.80;;;17.20;1.00;;;;;;5028274;28;20448;-74
2023/10/13 02:29:07;;;;;;;14.47;9.80;;;17.10;1.00;;;;;;5028896;28;20437;-75
2023/10/13 02:31:37;;;;;;;21.43;9.40;;;17.20;1.00;;;;;;5027404;28;20425;-74
2023/10/13 02:34:07;;;;;;;14.17;9.53;;;17.10;1.00;;;;;;5028990;28;20277;-75
2023/10/13 02:36:36;;;;;;;24.20;9.77;;;17.10;1.00;;;;;;5028502;28;20451;-75
2023/10/13 02:39:08;;;;;;;12.27;9.40;;;17.00;1.00;;;;;;5028718;28;20961;-75
2023/10/13 02:41:39;;;;;;;15.40;9.53;;;17.00;1.00;;;;;;5028754;28;20934;-75
2023/10/13 02:44:06;;;;;;;13.10;9.83;;;17.00;1.00;;;;;;5032646;28;20489;-76
2023/10/13 02:46:35;;;;;;;16.30;9.50;;;16.90;1.00;;;;;;5032095;28;20459;-72
2023/10/13 02:49:09;;;;;;;13.27;9.33;;;17.30;1.00;;;;;;5032487;28;20503;-74
2023/10/13 02:51:41;;;;;;;18.47;9.17;;;16.90;1.00;;;;;;5031724;28;20847;-75
2023/10/13 02:54:11;;;;;;;18.20;9.33;;;16.90;1.00;;;;;;5031064;28;20962;-75
2023/10/13 02:56:48;;;;;;;15.50;9.80;;;16.80;1.00;;;;;;5031972;28;20511;-74
2023/10/13 02:59:14;;;;;;;18.03;9.43;;;16.80;1.00;;;;;;5032253;28;20420;-74
2023/10/13 03:01:40;;;;;;;16.40;8.93;;;16.80;1.00;;;;;;5032272;28;20416;-73
2023/10/13 03:04:12;;;;;;;14.73;9.87;;;17.60;1.00;;;;;;5032592;28;20198;-74
2023/10/13 03:06:41;;;;;;;16.67;9.80;;;16.80;1.00;;;;;;5031741;28;20237;-74
2023/10/13 03:09:15;;;;;;;12.43;8.77;;;16.90;1.00;;;;;;5032135;28;20416;-76
2023/10/13 03:11:48;;;;;;;18.90;10.00;;;16.90;1.00;;;;;;5032252;28;20917;-74
2023/10/13 03:16:57;;;;;;;16.43;9.53;;;17.00;1.00;;;;;;5031995;28;20960;-75
2023/10/13 03:19:32;;;;;;;14.23;9.30;;;16.90;1.00;;;;;;5032038;28;20405;-74
2023/10/13 03:22:06;;;;;;;18.23;9.60;;;;;;;;;;5031749;28;20830;-75
2023/10/13 03:24:34;;;;;;;12.90;8.83;;;16.90;1.00;;;;;;5031923;28;20511;-76
2023/10/13 03:27:08;;;;;;;17.90;9.33;;;16.90;1.00;;;;;;5031686;28;20412;-74
2023/10/13 03:29:44;;;;;;;16.20;9.57;;;16.80;1.00;;;;;;5031741;28;20440;-74
2023/10/13 03:32:17;;;;;;;15.47;9.40;;;16.90;1.00;;;;;;5031806;28;20557;-75
2023/10/13 03:34:53;;;;;;;16.50;9.87;;;16.90;1.00;;;;;;5031612;28;20416;-74
2023/10/13 03:37:37;;;;;;;14.67;8.53;;;16.90;1.00;;;;;;5031429;28;20404;-74
2023/10/13 03:43:04;;;;;;;14.80;8.37;;;16.90;1.00;;;;;;5031350;28;20441;-74
2023/10/13 03:45:37;;;;;;;13.60;9.20;;;16.90;1.00;;;;;;5031995;28;20856;-74
2023/10/13 03:48:11;;;;;;;17.23;8.30;;;16.90;1.00;;;;;;5031497;28;20489;-75
2023/10/13 03:50:45;;;;;;;12.73;9.30;;;16.90;1.00;;;;;;5031105;28;20479;-77
2023/10/13 03:53:13;;;;;;;14.53;9.13;;;16.90;1.00;;;;;;5030968;28;20428;-75
2023/10/13 03:55:38;;;;;;;13.70;8.50;;;16.90;1.00;;;;;;5031129;28;20432;-72
2023/10/13 03:58:04;;;;;;;12.90;8.07;;;16.80;1.00;;;;;;5031289;28;20514;-74
2023/10/13 04:00:31;;;;;;;12.60;7.30;;;16.80;1.00;;;;;;5031205;28;20185;-74
2023/10/13 04:03:07;;;;;;;13.17;8.20;;;16.80;1.00;;;;;;5031271;28;20284;-74
2023/10/13 04:05:40;;;;;;;17.57;9.13;;;16.90;1.00;;;;;;5029887;28;20452;-74
2023/10/13 04:29:45;;;;;;;11.70;6.77;;;17.30;1.00;;;;;;5030480;28;20470;-73
2023/10/13 04:32:15;;;;;;;16.50;7.20;;;17.40;1.00;;;;;;5022101;28;20413;-74
2023/10/13 04:34:45;;;;;;;13.93;7.23;;;17.40;1.00;;;;;;5030056;28;20940;-75
2023/10/13 04:37:48;;;;;;;12.10;7.07;;;17.40;1.00;;;;;;5046066;28;20460;-73
2023/10/13 04:40:09;;;;;;;18.70;7.23;;;17.50;1.00;;;;;;5029652;28;20436;-75
2023/10/13 04:42:57;;;;;;;13.80;7.03;;;17.60;1.00;;;;;;5031021;28;20836;-73
2023/10/13 04:45:53;;;;;;;10.27;6.37;;;17.60;1.00;;;;;;5030175;28;20470;-74
2023/10/13 04:50:56;;;;;;;13.90;7.03;;;17.60;1.00;;;;;;5030353;28;20510;-74
2023/10/13 04:53:34;;;;;;;12.00;6.70;;;17.50;1.00;;;;;;5030100;28;20423;-75
2023/10/13 05:50:13;;;;;;;12.07;6.30;;;17.00;1.00;;;;;;5029641;28;20922;-75
2023/10/13 06:31:08;;;;;;;12.30;6.03;;;17.60;1.00;;;;;;5032263;28;20409;-74
2023/10/13 06:33:34;;;;;;;14.90;6.40;;;18.90;1.00;;;;;;5032733;28;20478;-73
2023/10/13 06:36:03;;;;;;;12.33;6.13;;;17.80;1.00;;;;;;5032388;28;20491;-73
2023/10/13 06:38:38;;;;;;;10.13;5.83;;;17.80;1.00;;;;;;5032614;28;20424;-74
2023/10/13 06:41:07;;;;;;;15.30;5.80;;;17.90;1.00;;;;;;5032310;28;20416;-73
2023/10/13 06:43:40;;;;;;;12.47;5.90;;;18.00;1.00;;;;;;5032268;28;20435;-76
2023/10/13 06:46:23;;;;;;;12.47;5.83;;;18.10;1.00;;;;;;5047341;28;20869;-75
2023/10/13 06:48:52;;;;;;;17.60;6.23;;;18.20;1.00;;;;;;5032303;28;20907;-75
2023/10/13 06:51:21;;;;;;;12.90;5.67;;;18.30;1.00;;;;;;5032427;28;20413;-75
2023/10/13 06:53:47;;;;;;;12.10;6.50;;;18.40;1.00;;;;;;5032385;28;20416;-75
2023/10/13 06:56:22;;;;;;;21.60;6.70;;;18.50;1.00;;;;;;5032007;28;20994;-74
2023/10/13 06:58:49;;;;;;;12.77;6.53;;;18.60;1.00;;;;;;5032376;28;20973;-75
2023/10/13 07:01:22;;;;;;;10.40;6.40;;;18.80;1.00;;;;;;5031715;28;20519;-74
2023/10/13 07:03:52;;;;;;;14.77;6.63;;;18.90;1.00;;;;;;5032348;28;20440;-75
2023/10/13 07:06:21;;;;;;;14.37;6.37;;;19.00;1.00;;;;;;5031797;28;20475;-74
2023/10/13 07:08:53;;;;;;;11.90;6.47;;;19.10;1.00;;;;;;5032043;28;20405;-75
2023/10/13 07:11:33;;;;;;;17.20;6.70;;;19.10;1.00;;;;;;5031957;28;20751;-74
2023/10/13 07:14:16;;;;;;;11.40;6.00;;;19.20;1.00;;;;;;5031662;28;20803;-74
2023/10/13 07:16:58;;;;;;;11.17;6.10;;;19.20;1.00;;;;;;5031870;28;20409;-74
2023/10/13 07:19:27;;;;;;;14.83;6.37;;;19.30;1.00;;;;;;5024283;28;20405;-75
2023/10/13 07:21:58;;;;;;;14.17;6.27;;;19.30;1.00;;;;;;5031894;28;20414;-75
2023/10/13 07:24:33;;;;;;;12.43;6.70;;;19.40;1.00;;;;;;5023982;28;20417;-76
2023/10/13 07:27:05;;;;;;;19.23;6.70;;;19.40;1.00;;;;;;5031345;28;20436;-72
2023/10/13 07:29:33;;;;;;;16.43;6.40;;;19.50;1.00;;;;;;5031384;28;20486;-76
2023/10/13 07:32:02;;;;;;;15.80;6.80;;;19.70;1.00;;;;;;5031437;28;20458;-76
2023/10/13 07:34:32;;;;;;;15.60;6.60;;;19.70;1.00;;;;;;5031589;28;20439;-75
2023/10/13 07:37:00;;;;;;;11.30;6.37;;;19.80;1.00;;;;;;5030869;28;20818;-78
2023/10/13 07:39:39;;;;;;;12.77;6.47;;;19.90;1.00;;;;;;5031534;28;20500;-75
2023/10/13 07:42:05;;;;;;;13.97;5.73;;;20.00;1.00;;;;;;5031345;28;20397;-75
2023/10/13 07:44:33;;;;;;;14.53;6.30;;;20.00;1.00;;;;;;5031599;28;20437;-74
2023/10/13 07:46:59;;;;;;;11.10;7.00;;;20.10;1.00;;;;;;5031191;28;20408;-77
2023/10/13 07:49:36;;;;;;;11.83;5.90;;;20.20;1.00;;;;;;5031224;28;20431;-73
2023/10/13 07:55:00;;;;;;;11.83;6.03;;;20.40;1.00;;;;;;5031475;28;20510;-74
2023/10/13 07:57:35;;;;;;;18.20;6.40;;;20.50;1.00;;;;;;5023293;28;20408;-74
2023/10/13 08:00:11;;;;;;;10.00;6.30;;;20.60;1.00;;;;;;5045990;28;20508;-74
2023/10/13 08:02:49;;;;;;;17.13;6.37;;;20.60;1.00;;;;;;5031257;28;20432;-74
2023/10/13 08:05:58;;;;;;;10.33;5.70;;;20.60;1.00;;;;;;5030766;28;20459;-75
2023/10/13 08:08:12;;;;;;;13.50;5.80;;;20.60;1.00;;;;;;5027408;28;20451;-74
2023/10/13 08:10:41;;;;;;;11.40;5.83;;;20.70;1.00;;;;;;5030814;28;20774;-76
2023/10/13 08:13:12;;;;;;;12.90;6.53;;;20.70;1.00;;;;;;5030645;28;20436;-74
2023/10/13 08:15:40;;;;;;;8.93;5.77;;;20.70;1.00;;;;;;5031033;28;20487;-74
2023/10/13 08:18:10;;;;;;;15.67;5.90;;;20.70;1.00;;;;;;5030666;28;20496;-74
2023/10/13 08:20:40;;;;;;;11.40;5.90;;;20.80;1.00;;;;;;5030425;28;21083;-74
2023/10/13 08:23:14;;;;;;;12.33;6.40;;;20.90;1.00;;;;;;5030580;28;20492;-76
2023/10/13 08:31:21;;;;;;;12.43;6.20;;;21.40;1.00;;;;;;5029978;28;20420;-73
2023/10/13 08:33:47;;;;;;;11.47;6.53;;;21.80;1.00;;;;;;5030230;28;20431;-75
2023/10/13 08:36:28;;;;;;;13.80;5.33;;;23.10;1.00;;;;;;5030230;28;20419;-75
2023/10/13 08:38:55;;;;;;;13.23;6.20;;;24.80;1.00;;;;;;5030510;28;20547;-75
2023/10/13 08:43:52;;;;;;;13.33;5.73;;;27.80;1.00;;;;;;5030728;28;20439;-74
2023/10/13 08:46:27;;;;;;;10.17;5.40;;;28.80;1.00;;;;;;5030164;28;20288;-74
2023/10/13 08:49:06;;;;;;;12.48;5.43;;;29.60;1.00;;;;;;5030314;28;20165;-79
2023/10/13 08:51:43;;;;;;;11.45;4.95;;;30.40;1.00;;;;;;5030289;28;20177;-75
2023/10/13 08:54:35;;;;;;;10.50;5.38;;;31.20;1.00;;;;;;5029974;28;20240;-75
2023/10/13 08:57:19;;;;;;;8.75;5.25;;;31.50;1.00;;;;;;5029817;28;20189;-75
2023/10/13 08:59:53;;;;;;;12.93;5.47;;;31.80;1.00;;;;;;5029988;28;20201;-75
2023/10/13 09:02:26;;;;;;;10.85;5.43;;;32.20;1.00;;;;;;5030008;28;20635;-75
2023/10/13 09:04:59;;;;;;;11.15;4.90;;;32.20;1.00;;;;;;5029889;28;20205;-77
2023/10/13 09:07:25;;;;;;;12.55;5.50;;;31.80;1.00;;;;;;5029882;28;20200;-75
2023/10/13 09:12:25;;;;;;;11.18;5.22;;;32.30;1.00;;;;;;5029519;28;20203;-75
2023/10/13 09:14:58;;;;;;;14.93;4.95;;;32.40;1.00;;;;;;5028259;28;20181;-75
2023/10/13 09:17:35;;;;;;;16.85;5.28;;;33.00;1.00;;;;;;5029553;28;20197;-74
2023/10/13 09:22:54;;;;;;;11.25;5.30;;;32.10;1.00;;;;;;5030167;28;20250;-75
2023/10/13 09:25:22;;;;;;;13.68;5.20;;;32.20;1.00;;;;;;5029403;28;20667;-74
2023/10/13 09:27:53;;;;;;;8.70;4.80;;;32.80;1.00;;;;;;5029680;28;20189;-75
2023/10/13 09:30:21;;;;;;;9.27;5.00;;;34.80;1.00;;;;;;5029104;28;20260;-78
2023/10/13 09:32:48;;;;;;;8.75;4.35;;;34.90;1.00;;;;;;5029552;28;20185;-75
2023/10/13 09:35:22;;;;;;;9.20;4.65;;;35.10;1.00;;;;;;5028912;28;20183;-75
2023/10/13 09:37:50;;;;;;;6.85;4.40;;;34.50;1.00;;;;;;5029346;28;20328;-75
2023/10/13 09:40:27;;;;;;;9.07;4.70;;;34.20;1.00;;;;;;5029017;28;20184;-77
2023/10/13 09:42:55;;;;;;;12.80;4.78;;;34.50;1.00;;;;;;5029046;28;20192;-75
2023/10/13 09:45:27;;;;;;;12.00;4.97;;;34.60;1.00;;;;;;5029103;28;20709;-76
2023/10/13 09:47:57;;;;;;;11.20;4.65;;;34.60;1.00;;;;;;5029421;28;20185;-75
2023/10/13 09:50:27;;;;;;;8.70;4.30;;;33.80;1.00;;;;;;5029306;28;20177;-76
2023/10/13 09:52:53;;;;;;;15.65;4.50;;;34.80;1.00;;;;;;5035935;28;20197;-75
2023/10/13 09:55:29;;;;;;;14.10;4.45;;;35.10;1.00;;;;;;5035805;28;20655;-75
2023/10/13 09:58:10;;;;;;;11.32;4.72;;;35.00;1.00;;;;;;5036040;28;20176;-75
2023/10/13 10:06:17;;;;;;;13.05;4.32;;;34.50;1.00;;;;;;5029911;28;20208;-74
2023/10/13 10:08:50;;;;;;;11.13;4.07;;;34.90;1.00;;;;;;5028745;28;20173;-74
2023/10/13 10:11:34;;;;;;;6.20;4.40;;;35.80;1.00;;;;;;5035463;28;20691;-75
2023/10/13 10:14:17;;;;;;;8.00;4.43;;;35.70;1.00;;;;;;5035892;28;20267;-74
2023/10/13 10:17:01;;;;;;;9.82;3.90;;;36.60;1.00;;;;;;5039234;28;20182;-74
2023/10/13 10:19:30;;;;;;;11.07;4.18;;;37.20;1.00;;;;;;5033836;28;20181;-74
2023/10/13 10:22:16;;;;;;;8.00;4.20;;;37.10;1.00;;;;;;5035876;28;20590;-75
2023/10/13 10:24:43;;;;;;;11.63;4.50;;;36.30;1.00;;;;;;5028154;28;20181;-74
2023/10/13 10:27:14;;;;;;;10.32;4.25;;;37.10;1.00;;;;;;5035368;28;20239;-74
2023/10/13 10:29:55;;;;;;;11.93;4.38;;;37.50;1.00;;;;;;5027418;28;20256;-75
2023/10/13 10:32:21;;;;;;;14.02;4.10;;;37.50;1.00;;;;;;5035281;28;20741;-75
2023/10/13 10:34:47;;;;;;;8.85;4.05;;;38.40;1.00;;;;;;5035850;28;20205;-75
2023/10/13 10:37:13;;;;;;;9.30;4.22;;;38.20;1.00;;;;;;5035433;28;20267;-75
2023/10/13 10:39:46;;;;;;;9.65;3.80;;;39.30;1.00;;;;;;5035142;28;20193;-75
2023/10/13 10:42:16;;;;;;;12.68;3.90;;;40.70;1.00;;;;;;5033799;28;20169;-75
2023/10/13 10:44:47;;;;;;;9.27;3.67;;;40.70;1.00;;;;;;5027277;28;20608;-75
2023/10/13 10:47:36;;;;;;;10.25;4.57;;;41.40;1.00;;;;;;5035268;28;20173;-76
2023/10/13 10:50:19;;;;;;;8.60;4.45;;;39.90;1.00;;;;;;5035241;28;20330;-75
2023/10/13 10:52:46;;;;;;;9.60;4.05;;;37.90;1.00;;;;;;5027839;28;20215;-76
2023/10/13 10:55:14;;;;;;;12.40;4.30;;;35.60;1.00;;;;;;5035326;28;20181;-76
2023/10/13 10:57:43;;;;;;;12.73;4.45;;;34.50;1.00;;;;;;5035477;28;20169;-75
2023/10/13 11:00:41;;;;;;;9.73;4.40;;;34.70;1.00;;;;;;5035153;28;20177;-75
2023/10/13 11:03:07;;;;;;;11.85;4.05;;;37.50;1.00;;;;;;5027592;28;20275;-76
2023/10/13 11:05:46;;;;;;;10.05;4.65;;;37.60;1.00;;;;;;5032332;28;20723;-75
2023/10/13 11:08:37;;;;;;;9.77;4.68;;;37.90;1.00;;;;;;5032437;28;20586;-75
2023/10/13 11:11:17;;;;;;;12.50;4.20;;;36.20;1.00;;;;;;5032523;28;20209;-74
2023/10/13 11:14:03;;;;;;;11.38;4.85;;;34.40;1.00;;;;;;5024138;28;20578;-75
2023/10/13 11:16:34;;;;;;;10.13;4.53;;;34.60;1.00;;;;;;5031699;28;20173;-75
2023/10/13 11:19:06;;;;;;;9.13;4.72;;;34.30;1.00;;;;;;5032000;28;20177;-75
2023/10/13 11:21:32;;;;;;;9.45;5.03;;;33.90;1.00;;;;;;5031835;28;20319;-76
2023/10/13 11:24:06;;;;;;;13.00;4.10;;;32.50;1.00;;;;;;5031830;28;20670;-76
2023/10/13 11:26:47;;;;;;;8.95;4.50;;;32.00;1.00;;;;;;5031546;28;20545;-75
2023/10/13 11:29:13;;;;;;;13.13;4.88;;;31.40;1.00;;;;;;5032095;28;20406;-75
2023/10/13 11:31:38;;;;;;;10.13;4.13;;;31.30;1.00;;;;;;5031336;28;20691;-75
2023/10/13 11:34:05;;;;;;;8.55;4.80;;;30.40;1.00;;;;;;5031815;28;20207;-74
2023/10/13 11:36:33;;;;;;;8.93;4.57;;;30.20;1.00;;;;;;5030679;28;20191;-75
2023/10/13 11:38:58;;;;;;;8.32;4.60;;;29.80;1.00;;;;;;5031989;28;20372;-75
2023/10/13 11:41:32;;;;;;;9.25;4.50;;;29.70;1.00;;;;;;5031359;28;20174;-75
2023/10/13 11:44:23;;;;;;;10.68;4.63;;;29.70;1.00;;;;;;5031800;28;20279;-75
2023/10/13 11:46:55;;;;;;;8.52;4.63;;;30.30;1.00;;;;;;5031624;28;20197;-76
2023/10/13 11:52:01;;;;;;;8.50;5.10;;;33.50;1.00;;;;;;5031881;28;20177;-75
2023/10/13 11:54:27;;;;;;;14.98;5.07;;;33.40;1.00;;;;;;5031436;28;20261;-75
2023/10/13 11:56:53;;;;;;;11.00;4.50;;;33.20;1.00;;;;;;5031227;28;20463;-75
2023/10/13 11:59:18;;;;;;;10.90;4.97;;;33.80;1.00;;;;;;5031146;28;20185;-75
2023/10/13 12:07:19;;;;;;;10.32;5.20;;;35.60;1.00;;;;;;5031279;28;20187;-75
2023/10/13 12:12:25;;;;;;;14.13;5.15;;;36.40;1.00;;;;;;5031344;28;20193;-76
2023/10/13 12:14:57;;;;;;;13.93;4.70;;;36.60;1.00;;;;;;5023077;28;20180;-75
2023/10/13 12:17:36;;;;;;;14.63;5.03;;;37.60;1.00;;;;;;5031020;28;20181;-77
2023/10/13 12:20:05;;;;;;;13.85;4.18;;;39.10;1.00;;;;;;5031101;28;20223;-74
2023/10/13 12:22:42;;;;;;;13.23;4.85;;;40.00;1.00;;;;;;5030658;28;20196;-76
2023/10/13 12:27:57;;;;;;;9.40;4.53;;;39.60;1.00;;;;;;5030791;28;20583;-75
2023/10/13 12:30:36;;;;;;;11.88;4.85;;;40.10;1.00;;;;;;5030460;28;20177;-75
2023/10/13 12:33:09;;;;;;;7.70;4.30;;;39.70;1.00;;;;;;5024128;28;20291;-77
2023/10/13 12:35:44;;;;;;;13.38;4.95;;;37.70;1.00;;;;;;5030093;28;20659;-76
2023/10/13 12:38:36;;;;;;;13.63;5.35;;;36.70;1.00;;;;;;5030682;28;20202;-75
2023/10/13 12:48:55;;;;;;;8.07;4.50;;;35.10;1.00;;;;;;5030349;28;20760;-75
2023/10/13 12:52:19;;;;;;;9.93;5.00;;;32.00;1.00;;;;;;5030559;28;20185;-75
2023/10/13 12:57:27;;;;;;;9.98;5.40;;;31.50;1.00;;;;;;5030336;28;20189;-75
2023/10/13 12:59:53;;;;;;;10.18;4.50;;;31.00;1.00;;;;;;5030199;28;20567;-75
2023/10/13 13:02:29;;;;;;;10.10;4.80;;;30.70;1.00;;;;;;5030181;28;20169;-75
2023/10/13 13:05:11;;;;;;;8.93;4.90;;;30.40;1.00;;;;;;5030051;28;20218;-75
2023/10/13 13:07:47;;;;;;;11.20;4.70;;;30.30;1.00;;;;;;5029889;28;20181;-78
2023/10/13 13:10:15;;;;;;;23.52;5.82;;;30.60;1.00;;;;;;5029808;28;20250;-75
2023/10/13 13:12:41;;;;;;;11.70;4.90;;;31.40;1.00;;;;;;5029757;28;20216;-74
2023/10/13 13:15:11;;;;;;;10.63;5.00;;;31.70;1.00;;;;;;5029865;28;20173;-75
2023/10/13 13:17:38;;;;;;;7.72;4.72;;;32.30;1.00;;;;;;5029620;28;20173;-75
2023/10/13 13:20:11;;;;;;;12.93;4.95;;;32.80;1.00;;;;;;5029820;28;20253;-75
2023/10/13 13:22:38;;;;;;;15.68;4.78;;;33.10;1.00;;;;;;5029637;28;20197;-75
2023/10/13 13:25:07;;;;;;;12.05;4.68;;;33.20;1.00;;;;;;5029625;28;20604;-75
2023/10/13 13:27:33;;;;;;;11.25;4.68;;;32.90;1.00;;;;;;5028849;28;20287;-75
2023/10/13 13:29:58;;;;;;;7.03;4.30;;;32.80;1.00;;;;;;5029400;28;20273;-74
2023/10/13 13:32:24;;;;;;;12.85;4.78;;;32.70;1.00;;;;;;5029654;28;20193;-78
2023/10/13 13:35:05;;;;;;;8.95;4.20;;;32.70;1.00;;;;;;5029671;28;20177;-75
2023/10/13 13:37:34;;;;;;;10.88;4.55;;;32.20;1.00;;;;;;5029237;28;20185;-75
2023/10/13 13:40:14;;;;;;;10.73;5.38;;;32.20;1.00;;;;;;5029454;28;20184;-75
2023/10/13 13:42:42;;;;;;;11.15;4.70;;;31.90;1.00;;;;;;5029386;28;20197;-75
2023/10/13 13:45:27;;;;;;;15.45;4.50;;;31.70;1.00;;;;;;5029416;28;20283;-75
2023/10/13 13:47:53;;;;;;;10.45;4.53;;;31.70;1.00;;;;;;5029247;28;20165;-75
2023/10/13 13:50:25;;;;;;;8.23;4.57;;;31.40;1.00;;;;;;5029398;28;20191;-75
2023/10/13 13:52:52;;;;;;;10.27;5.55;;;30.90;1.00;;;;;;5029435;28;20204;-75
2023/10/13 13:55:19;;;;;;;9.40;4.90;;;31.00;1.00;;;;;;5029541;28;20181;-75
2023/10/13 13:57:45;;;;;;;9.60;5.03;;;30.80;1.00;;;;;;5029426;28;20268;-75
2023/10/13 14:00:18;;;;;;;9.07;5.00;;;30.90;1.00;;;;;;5028972;28;20260;-74
2023/10/13 14:02:47;;;;;;;11.60;5.00;;;30.50;1.00;;;;;;5029305;28;20632;-75
2023/10/13 14:05:16;;;;;;;8.82;5.00;;;30.50;1.00;;;;;;5044466;28;20209;-75
2023/10/13 14:07:48;;;;;;;12.57;4.88;;;30.30;1.00;;;;;;5029142;28;20173;-75
2023/10/13 14:10:31;;;;;;;12.23;5.22;;;30.30;1.00;;;;;;5029194;28;20176;-75
2023/10/13 14:13:12;;;;;;;9.95;4.70;;;30.00;1.00;;;;;;5029131;28;20204;-74
2023/10/13 14:15:43;;;;;;;12.07;4.72;;;29.90;1.00;;;;;;5029227;28;20185;-74
2023/10/13 14:18:15;;;;;;;11.95;4.90;;;29.80;1.00;;;;;;5029583;28;20192;-75
2023/10/13 14:20:42;;;;;;;18.88;5.50;;;29.70;1.00;;;;;;5028885;28;20709;-74
2023/10/13 14:23:11;;;;;;;10.05;4.63;;;29.90;1.00;;;;;;5029013;28;20201;-75
2023/10/13 14:25:37;;;;;;;7.75;4.10;;;29.90;1.00;;;;;;5028767;28;20204;-75
2023/10/13 14:28:06;;;;;;;10.38;4.82;;;30.00;1.00;;;;;;5029124;28;20197;-75
2023/10/13 14:30:32;;;;;;;8.05;5.00;;;30.20;1.00;;;;;;5029008;28;20165;-75
2023/10/13 14:32:58;;;;;;;8.02;4.30;;;30.20;1.00;;;;;;5027546;28;20200;-75
2023/10/13 14:35:25;;;;;;;12.20;4.72;;;30.20;1.00;;;;;;5028965;28;20177;-75
2023/10/13 14:37:54;;;;;;;13.93;4.80;;;29.90;1.00;;;;;;5030841;28;20196;-76
2023/10/13 14:40:23;;;;;;;11.05;5.05;;;29.70;1.00;;;;;;5032450;28;20260;-74
2023/10/13 14:42:49;;;;;;;10.00;4.75;;;29.30;1.00;;;;;;5032965;28;20563;-74
2023/10/13 14:45:16;;;;;;;11.82;4.82;;;29.50;1.00;;;;;;5032929;28;20197;-74
2023/10/13 14:47:42;;;;;;;9.07;4.70;;;29.20;1.00;;;;;;5032665;28;20173;-74
2023/10/13 14:50:19;;;;;;;13.23;4.28;;;29.20;1.00;;;;;;5032375;28;20175;-75
2023/10/13 14:52:44;;;;;;;10.75;4.75;;;29.00;1.00;;;;;;5032718;28;20288;-75
2023/10/13 14:55:18;;;;;;;9.17;4.50;;;29.10;1.00;;;;;;5032538;28;20188;-77
2023/10/13 14:57:47;;;;;;;12.87;4.80;;;29.00;1.00;;;;;;5032448;28;20170;-74
2023/10/13 15:00:13;;;;;;;9.82;4.13;;;29.10;1.00;;;;;;5032292;28;20184;-76
2023/10/13 15:02:39;;;;;;;12.43;4.80;;;29.50;1.00;;;;;;5032037;28;20286;-73
2023/10/13 15:05:04;;;;;;;14.30;4.63;;;29.50;1.00;;;;;;5032333;28;20229;-75
2023/10/13 15:07:30;;;;;;;10.40;4.33;;;29.50;1.00;;;;;;5047593;28;20205;-75
2023/10/13 15:09:58;;;;;;;8.32;4.28;;;29.40;1.00;;;;;;5032031;28;20173;-75
2023/10/13 15:12:25;;;;;;;9.70;4.50;;;29.40;1.00;;;;;;5037030;28;20201;-74
2023/10/13 15:14:53;;;;;;;10.90;4.30;;;29.40;1.00;;;;;;5026581;28;20173;-74
2023/10/13 15:17:18;;;;;;;10.77;5.10;;;29.30;1.00;;;;;;5028524;28;20176;-75
2023/10/13 15:19:44;;;;;;;13.02;4.30;;;29.40;1.00;;;;;;5031582;28;20170;-71
2023/10/13 15:22:16;;;;;;;15.65;4.32;;;29.40;1.00;;;;;;5029809;28;20177;-73
2023/10/13 15:24:57;;;;;;;9.50;4.50;;;29.40;1.00;;;;;;5027374;28;20579;-71
2023/10/13 15:27:23;;;;;;;9.85;4.35;;;29.30;1.00;;;;;;5032529;28;20192;-73
2023/10/13 15:29:50;;;;;;;11.77;4.33;;;29.30;1.00;;;;;;5034029;28;20173;-71
2023/10/13 15:35:00;;;;;;;14.68;4.55;;;29.30;1.00;;;;;;5030138;28;20188;-71
2023/10/13 15:37:27;;;;;;;13.10;4.33;;;29.20;1.00;;;;;;5022013;28;20655;-73
2023/10/13 15:39:52;;;;;;;11.60;3.97;;;29.20;1.00;;;;;;5032771;28;20177;-71
2023/10/13 15:42:20;;;;;;;12.77;5.30;;;29.10;1.00;;;;;;5032040;28;20533;-72
2023/10/13 15:44:46;;;;;;;10.57;4.13;;;29.10;1.00;;;;;;5030659;28;20673;-72
2023/10/13 15:47:12;;;;;;;9.30;4.30;;;29.00;1.00;;;;;;5030723;28;20273;-72
2023/10/13 15:49:41;;;;;;;11.13;4.33;;;28.80;1.00;;;;;;5027645;28;20274;-72
2023/10/13 15:52:07;;;;;;;12.00;4.17;;;28.60;1.00;;;;;;5025631;28;20196;-73
2023/10/13 15:54:35;;;;;;;8.63;4.20;;;28.60;1.00;;;;;;5025331;28;20208;-73
2023/10/13 15:57:00;;;;;;;12.17;4.67;;;28.40;1.00;;;;;;5026335;28;20703;-73
2023/10/13 15:59:26;;;;;;;9.60;4.60;;;28.30;1.00;;;;;;5019760;28;20186;-74
2023/10/13 16:01:57;;;;;;;16.00;4.90;;;28.20;1.00;;;;;;5027775;28;20222;-72
2023/10/13 16:04:23;;;;;;;9.93;4.30;;;28.10;1.00;;;;;;5029079;28;20518;-73